sensor_id;sensor_type;location;lat;lon;timestamp;temperature;humidity
39017;DHT22;24784;45.582;5.276;2022-10-30T00:01:04;15.30;99.90
39017;DHT22;24784;45.582;5.276;2022-10-30T00:03:30;15.30;99.90
39017;DHT22;24784;45.582;5.276;2022-10-30T00:05:55;15.20;99.90
39017;DHT22;24784;45.582;5.276;2022-10-30T00:08:22;15.20;99.90
39017;DHT22;24784;45.582;5.276;2022-10-30T00:10:50;14.90;99.90
39017;DHT22;24784;45.582;5.276;2022-10-30T00:13:16;14.90;99.90
39017;DHT22;24784;45.582;5.276;2022-10-30T00:15:47;14.90;99.90
39017;DHT22;24784;45.582;5.276;2022-10-30T00:18:13;14.90;99.90
39017;DHT22;24784;45.582;5.276;2022-10-30T00:20:39;14.80;99.90
39017;DHT22;24784;45.582;5.276;2022-10-30T00:23:05;14.80;99.90
39017;DHT22;24784;45.582;5.276;2022-10-30T00:25:30;14.60;99.90
39017;DHT22;24784;45.582;5.276;2022-10-30T00:27:56;14.60;99.90
39017;DHT22;24784;45.582;5.276;2022-10-30T00:30:22;14.60;99.90
39017;DHT22;24784;45.582;5.276;2022-10-30T00:32:47;14.60;99.90
39017;DHT22;24784;45.582;5.276;2022-10-30T00:35:13;14.60;99.90
39017;DHT22;24784;45.582;5.276;2022-10-30T00:37:39;14.60;99.90
39017;DHT22;24784;45.582;5.276;2022-10-30T00:40:05;14.60;99.90
39017;DHT22;24784;45.582;5.276;2022-10-30T00:42:32;14.60;99.90
39017;DHT22;24784;45.582;5.276;2022-10-30T00:44:58;14.40;99.90
39017;DHT22;24784;45.582;5.276;2022-10-30T00:47:36;14.50;99.90
39017;DHT22;24784;45.582;5.276;2022-10-30T00:52:35;14.30;99.90
39017;DHT22;24784;45.582;5.276;2022-10-30T00:55:08;14.30;99.90
39017;DHT22;24784;45.582;5.276;2022-10-30T00:57:35;14.40;99.90
39017;DHT22;24784;45.582;5.276;2022-10-30T01:00:03;14.30;99.90
39017;DHT22;24784;45.582;5.276;2022-10-30T01:02:30;14.20;99.90
39017;DHT22;24784;45.582;5.276;2022-10-30T01:04:56;14.30;99.90
39017;DHT22;24784;45.582;5.276;2022-10-30T01:07:22;14.40;99.90
39017;DHT22;24784;45.582;5.276;2022-10-30T01:09:48;14.40;99.90
39017;DHT22;24784;45.582;5.276;2022-10-30T01:12:14;14.50;99.90
39017;DHT22;24784;45.582;5.276;2022-10-30T01:14:46;14.40;99.90
39017;DHT22;24784;45.582;5.276;2022-10-30T01:17:39;14.50;99.90
39017;DHT22;24784;45.582;5.276;2022-10-30T01:20:18;14.40;99.90
39017;DHT22;24784;45.582;5.276;2022-10-30T01:26:10;14.50;99.90
39017;DHT22;24784;45.582;5.276;2022-10-30T01:37:08;14.50;99.90
39017;DHT22;24784;45.582;5.276;2022-10-30T01:39:38;14.40;99.90
39017;DHT22;24784;45.582;5.276;2022-10-30T01:45:15;14.50;99.90
39017;DHT22;24784;45.582;5.276;2022-10-30T01:50:54;14.40;99.90
39017;DHT22;24784;45.582;5.276;2022-10-30T01:59:14;14.30;99.90
39017;DHT22;24784;45.582;5.276;2022-10-30T02:01:42;14.40;99.90
39017;DHT22;24784;45.582;5.276;2022-10-30T02:04:09;14.30;99.90
39017;DHT22;24784;45.582;5.276;2022-10-30T02:06:37;14.40;99.90
39017;DHT22;24784;45.582;5.276;2022-10-30T02:09:03;14.40;99.90
39017;DHT22;24784;45.582;5.276;2022-10-30T02:11:31;14.50;99.90
39017;DHT22;24784;45.582;5.276;2022-10-30T02:13:57;14.60;99.90
39017;DHT22;24784;45.582;5.276;2022-10-30T02:16:25;14.80;99.90
39017;DHT22;24784;45.582;5.276;2022-10-30T02:18:51;15.00;99.90
39017;DHT22;24784;45.582;5.276;2022-10-30T02:21:17;15.00;99.90
39017;DHT22;24784;45.582;5.276;2022-10-30T02:23:43;15.00;99.90
39017;DHT22;24784;45.582;5.276;2022-10-30T02:26:08;14.90;99.90
39017;DHT22;24784;45.582;5.276;2022-10-30T02:28:34;14.80;99.90
39017;DHT22;24784;45.582;5.276;2022-10-30T02:31:00;14.70;99.90
39017;DHT22;24784;45.582;5.276;2022-10-30T02:33:25;14.80;99.90
39017;DHT22;24784;45.582;5.276;2022-10-30T02:35:51;14.70;99.90
39017;DHT22;24784;45.582;5.276;2022-10-30T02:38:17;14.60;99.90
39017;DHT22;24784;45.582;5.276;2022-10-30T02:40:43;14.60;99.90
39017;DHT22;24784;45.582;5.276;2022-10-30T02:43:09;14.50;99.90
39017;DHT22;24784;45.582;5.276;2022-10-30T02:45:35;14.40;99.90
39017;DHT22;24784;45.582;5.276;2022-10-30T02:48:00;14.40;99.90
39017;DHT22;24784;45.582;5.276;2022-10-30T02:50:26;14.30;99.90
39017;DHT22;24784;45.582;5.276;2022-10-30T02:52:52;14.30;99.90
39017;DHT22;24784;45.582;5.276;2022-10-30T02:55:18;14.30;99.90
39017;DHT22;24784;45.582;5.276;2022-10-30T02:57:43;14.20;99.90
39017;DHT22;24784;45.582;5.276;2022-10-30T03:00:10;14.30;99.90
39017;DHT22;24784;45.582;5.276;2022-10-30T03:02:36;14.40;99.90
39017;DHT22;24784;45.582;5.276;2022-10-30T03:05:01;14.50;99.90
39017;DHT22;24784;45.582;5.276;2022-10-30T03:07:27;14.60;99.90
39017;DHT22;24784;45.582;5.276;2022-10-30T03:09:53;15.20;99.90
39017;DHT22;24784;45.582;5.276;2022-10-30T03:12:19;15.50;99.90
39017;DHT22;24784;45.582;5.276;2022-10-30T03:14:45;15.70;99.90
39017;DHT22;24784;45.582;5.276;2022-10-30T03:17:11;16.00;99.90
39017;DHT22;24784;45.582;5.276;2022-10-30T03:19:37;16.00;99.90
39017;DHT22;24784;45.582;5.276;2022-10-30T03:22:02;15.90;99.90
39017;DHT22;24784;45.582;5.276;2022-10-30T03:24:28;15.90;99.90
39017;DHT22;24784;45.582;5.276;2022-10-30T03:26:54;16.00;99.90
39017;DHT22;24784;45.582;5.276;2022-10-30T03:29:20;16.10;99.90
39017;DHT22;24784;45.582;5.276;2022-10-30T03:31:45;16.20;99.90
39017;DHT22;24784;45.582;5.276;2022-10-30T03:34:11;16.20;99.90
39017;DHT22;24784;45.582;5.276;2022-10-30T03:36:37;16.20;99.90
39017;DHT22;24784;45.582;5.276;2022-10-30T03:39:03;16.20;99.90
39017;DHT22;24784;45.582;5.276;2022-10-30T03:41:29;16.10;99.90
39017;DHT22;24784;45.582;5.276;2022-10-30T03:43:55;16.00;99.90
39017;DHT22;24784;45.582;5.276;2022-10-30T03:46:20;15.90;99.90
39017;DHT22;24784;45.582;5.276;2022-10-30T03:48:49;15.70;99.90
39017;DHT22;24784;45.582;5.276;2022-10-30T03:51:15;15.70;99.90
39017;DHT22;24784;45.582;5.276;2022-10-30T03:53:41;15.80;99.90
39017;DHT22;24784;45.582;5.276;2022-10-30T03:56:06;15.80;99.90
39017;DHT22;24784;45.582;5.276;2022-10-30T03:58:34;15.80;99.90
39017;DHT22;24784;45.582;5.276;2022-10-30T04:01:03;15.80;99.90
39017;DHT22;24784;45.582;5.276;2022-10-30T04:03:29;15.80;99.90
39017;DHT22;24784;45.582;5.276;2022-10-30T04:05:55;15.80;99.90
39017;DHT22;24784;45.582;5.276;2022-10-30T04:08:21;15.80;99.90
39017;DHT22;24784;45.582;5.276;2022-10-30T04:10:47;15.60;99.90
39017;DHT22;24784;45.582;5.276;2022-10-30T04:13:14;15.50;99.90
39017;DHT22;24784;45.582;5.276;2022-10-30T04:15:41;15.50;99.90
39017;DHT22;24784;45.582;5.276;2022-10-30T04:18:10;15.50;99.90
39017;DHT22;24784;45.582;5.276;2022-10-30T04:20:36;15.40;99.90
39017;DHT22;24784;45.582;5.276;2022-10-30T04:23:04;15.30;99.90
39017;DHT22;24784;45.582;5.276;2022-10-30T04:25:32;15.20;99.90
39017;DHT22;24784;45.582;5.276;2022-10-30T04:27:58;15.20;99.90
39017;DHT22;24784;45.582;5.276;2022-10-30T04:30:24;15.20;99.90
39017;DHT22;24784;45.582;5.276;2022-10-30T04:32:55;15.40;99.90
39017;DHT22;24784;45.582;5.276;2022-10-30T04:35:26;15.50;99.90
39017;DHT22;24784;45.582;5.276;2022-10-30T04:37:57;15.70;99.90
39017;DHT22;24784;45.582;5.276;2022-10-30T04:40:24;15.60;99.90
39017;DHT22;24784;45.582;5.276;2022-10-30T04:42:51;15.40;99.90
39017;DHT22;24784;45.582;5.276;2022-10-30T04:45:17;15.50;99.90
39017;DHT22;24784;45.582;5.276;2022-10-30T04:47:43;15.40;99.90
39017;DHT22;24784;45.582;5.276;2022-10-30T04:50:10;15.20;99.90
39017;DHT22;24784;45.582;5.276;2022-10-30T04:52:36;15.20;99.90
39017;DHT22;24784;45.582;5.276;2022-10-30T04:55:02;15.10;99.90
39017;DHT22;24784;45.582;5.276;2022-10-30T04:57:28;15.10;99.90
39017;DHT22;24784;45.582;5.276;2022-10-30T04:59:56;15.00;99.90
39017;DHT22;24784;45.582;5.276;2022-10-30T05:02:21;14.90;99.90
39017;DHT22;24784;45.582;5.276;2022-10-30T05:04:47;14.90;99.90
39017;DHT22;24784;45.582;5.276;2022-10-30T05:07:14;14.80;99.90
39017;DHT22;24784;45.582;5.276;2022-10-30T05:09:40;14.60;99.90
39017;DHT22;24784;45.582;5.276;2022-10-30T05:12:06;14.60;99.90
39017;DHT22;24784;45.582;5.276;2022-10-30T05:14:32;14.50;99.90
39017;DHT22;24784;45.582;5.276;2022-10-30T05:16:58;14.50;99.90
39017;DHT22;24784;45.582;5.276;2022-10-30T05:21:50;14.40;99.90
39017;DHT22;24784;45.582;5.276;2022-10-30T05:24:16;14.30;99.90
39017;DHT22;24784;45.582;5.276;2022-10-30T05:26:42;14.50;99.90
39017;DHT22;24784;45.582;5.276;2022-10-30T05:29:07;14.40;99.90
39017;DHT22;24784;45.582;5.276;2022-10-30T05:31:33;14.40;99.90
39017;DHT22;24784;45.582;5.276;2022-10-30T05:33:59;14.40;99.90
39017;DHT22;24784;45.582;5.276;2022-10-30T05:36:25;14.40;99.90
39017;DHT22;24784;45.582;5.276;2022-10-30T05:38:50;14.20;99.90
39017;DHT22;24784;45.582;5.276;2022-10-30T05:41:17;14.30;99.90
39017;DHT22;24784;45.582;5.276;2022-10-30T05:43:42;14.30;99.90
39017;DHT22;24784;45.582;5.276;2022-10-30T05:46:08;14.30;99.90
39017;DHT22;24784;45.582;5.276;2022-10-30T05:48:34;14.30;99.90
39017;DHT22;24784;45.582;5.276;2022-10-30T05:51:00;14.30;99.90
39017;DHT22;24784;45.582;5.276;2022-10-30T05:53:25;14.40;99.90
39017;DHT22;24784;45.582;5.276;2022-10-30T05:55:55;14.40;99.90
39017;DHT22;24784;45.582;5.276;2022-10-30T05:58:21;14.50;99.90
39017;DHT22;24784;45.582;5.276;2022-10-30T06:00:47;14.40;99.90
39017;DHT22;24784;45.582;5.276;2022-10-30T06:03:13;14.30;99.90
39017;DHT22;24784;45.582;5.276;2022-10-30T06:05:39;14.30;99.90
39017;DHT22;24784;45.582;5.276;2022-10-30T06:08:07;14.50;99.90
39017;DHT22;24784;45.582;5.276;2022-10-30T06:10:33;14.40;99.90
39017;DHT22;24784;45.582;5.276;2022-10-30T06:13:01;14.40;99.90
39017;DHT22;24784;45.582;5.276;2022-10-30T06:15:28;14.40;99.90
39017;DHT22;24784;45.582;5.276;2022-10-30T06:17:54;14.30;99.90
39017;DHT22;24784;45.582;5.276;2022-10-30T06:20:22;14.30;99.90
39017;DHT22;24784;45.582;5.276;2022-10-30T06:23:01;14.30;99.90
39017;DHT22;24784;45.582;5.276;2022-10-30T06:25:29;14.30;99.90
39017;DHT22;24784;45.582;5.276;2022-10-30T06:27:55;14.30;99.90
39017;DHT22;24784;45.582;5.276;2022-10-30T06:30:21;14.40;99.90
39017;DHT22;24784;45.582;5.276;2022-10-30T06:32:47;14.30;99.90
39017;DHT22;24784;45.582;5.276;2022-10-30T06:35:13;14.20;99.90
39017;DHT22;24784;45.582;5.276;2022-10-30T06:37:46;14.30;99.90
39017;DHT22;24784;45.582;5.276;2022-10-30T06:40:12;14.30;99.90
39017;DHT22;24784;45.582;5.276;2022-10-30T06:42:48;14.20;99.90
39017;DHT22;24784;45.582;5.276;2022-10-30T06:45:16;14.30;99.90
39017;DHT22;24784;45.582;5.276;2022-10-30T06:47:42;14.30;99.90
39017;DHT22;24784;45.582;5.276;2022-10-30T06:50:11;14.30;99.90
39017;DHT22;24784;45.582;5.276;2022-10-30T06:52:37;14.40;99.90
39017;DHT22;24784;45.582;5.276;2022-10-30T06:55:03;14.50;99.90
39017;DHT22;24784;45.582;5.276;2022-10-30T06:57:29;14.50;99.90
39017;DHT22;24784;45.582;5.276;2022-10-30T06:59:55;14.70;99.90
39017;DHT22;24784;45.582;5.276;2022-10-30T07:02:20;14.80;99.90
39017;DHT22;24784;45.582;5.276;2022-10-30T07:04:46;14.70;99.90
39017;DHT22;24784;45.582;5.276;2022-10-30T07:07:13;14.80;99.90
39017;DHT22;24784;45.582;5.276;2022-10-30T07:09:39;14.90;99.90
39017;DHT22;24784;45.582;5.276;2022-10-30T07:12:05;14.70;99.90
39017;DHT22;24784;45.582;5.276;2022-10-30T07:14:31;14.50;99.90
39017;DHT22;24784;45.582;5.276;2022-10-30T07:16:57;14.50;99.90
39017;DHT22;24784;45.582;5.276;2022-10-30T07:19:23;14.50;99.90
39017;DHT22;24784;45.582;5.276;2022-10-30T07:21:49;14.60;99.90
39017;DHT22;24784;45.582;5.276;2022-10-30T07:24:14;14.60;99.90
39017;DHT22;24784;45.582;5.276;2022-10-30T07:26:40;14.60;99.90
39017;DHT22;24784;45.582;5.276;2022-10-30T07:29:06;14.60;99.90
39017;DHT22;24784;45.582;5.276;2022-10-30T07:31:32;14.70;99.90
39017;DHT22;24784;45.582;5.276;2022-10-30T07:33:58;14.70;99.90
39017;DHT22;24784;45.582;5.276;2022-10-30T07:36:24;14.80;99.90
39017;DHT22;24784;45.582;5.276;2022-10-30T07:38:50;14.70;99.90
39017;DHT22;24784;45.582;5.276;2022-10-30T07:41:20;14.60;99.90
39017;DHT22;24784;45.582;5.276;2022-10-30T07:43:46;14.60;99.90
39017;DHT22;24784;45.582;5.276;2022-10-30T07:46:13;14.80;99.90
39017;DHT22;24784;45.582;5.276;2022-10-30T07:48:39;14.80;99.90
39017;DHT22;24784;45.582;5.276;2022-10-30T07:51:05;15.10;99.90
39017;DHT22;24784;45.582;5.276;2022-10-30T07:53:31;15.10;99.90
39017;DHT22;24784;45.582;5.276;2022-10-30T07:55:56;15.20;99.90
39017;DHT22;24784;45.582;5.276;2022-10-30T07:58:22;15.40;99.90
39017;DHT22;24784;45.582;5.276;2022-10-30T08:00:48;15.20;99.90
39017;DHT22;24784;45.582;5.276;2022-10-30T08:03:14;15.00;99.90
39017;DHT22;24784;45.582;5.276;2022-10-30T08:05:39;15.10;99.90
39017;DHT22;24784;45.582;5.276;2022-10-30T08:08:06;15.30;99.90
39017;DHT22;24784;45.582;5.276;2022-10-30T08:10:33;15.20;99.90
39017;DHT22;24784;45.582;5.276;2022-10-30T08:12:59;15.20;99.90
39017;DHT22;24784;45.582;5.276;2022-10-30T08:15:25;15.30;99.90
39017;DHT22;24784;45.582;5.276;2022-10-30T08:17:51;15.20;99.90
39017;DHT22;24784;45.582;5.276;2022-10-30T08:20:19;15.10;99.90
39017;DHT22;24784;45.582;5.276;2022-10-30T08:25:11;15.30;99.90
39017;DHT22;24784;45.582;5.276;2022-10-30T08:27:37;15.50;99.90
39017;DHT22;24784;45.582;5.276;2022-10-30T08:30:03;15.70;99.90
39017;DHT22;24784;45.582;5.276;2022-10-30T08:32:29;16.20;99.90
39017;DHT22;24784;45.582;5.276;2022-10-30T08:34:55;16.50;99.90
39017;DHT22;24784;45.582;5.276;2022-10-30T08:37:20;16.60;99.90
39017;DHT22;24784;45.582;5.276;2022-10-30T08:39:46;16.70;99.90
39017;DHT22;24784;45.582;5.276;2022-10-30T08:42:11;16.70;99.90
39017;DHT22;24784;45.582;5.276;2022-10-30T08:44:37;17.10;99.90
39017;DHT22;24784;45.582;5.276;2022-10-30T08:47:05;17.10;99.90
39017;DHT22;24784;45.582;5.276;2022-10-30T08:49:31;17.40;99.90
39017;DHT22;24784;45.582;5.276;2022-10-30T08:51:56;17.30;99.90
39017;DHT22;24784;45.582;5.276;2022-10-30T08:54:22;17.60;99.90
39017;DHT22;24784;45.582;5.276;2022-10-30T08:56:48;17.90;99.90
39017;DHT22;24784;45.582;5.276;2022-10-30T08:59:14;17.90;99.90
39017;DHT22;24784;45.582;5.276;2022-10-30T09:01:40;17.90;99.90
39017;DHT22;24784;45.582;5.276;2022-10-30T09:04:05;18.00;99.90
39017;DHT22;24784;45.582;5.276;2022-10-30T09:06:31;18.20;99.90
39017;DHT22;24784;45.582;5.276;2022-10-30T09:08:57;18.20;99.90
39017;DHT22;24784;45.582;5.276;2022-10-30T09:11:23;18.40;99.90
39017;DHT22;24784;45.582;5.276;2022-10-30T09:13:48;18.50;99.90
39017;DHT22;24784;45.582;5.276;2022-10-30T09:16:14;18.50;99.90
39017;DHT22;24784;45.582;5.276;2022-10-30T09:18:40;18.20;99.90
39017;DHT22;24784;45.582;5.276;2022-10-30T09:21:06;18.50;99.30
39017;DHT22;24784;45.582;5.276;2022-10-30T09:23:32;18.40;99.90
39017;DHT22;24784;45.582;5.276;2022-10-30T09:25:57;18.50;99.90
39017;DHT22;24784;45.582;5.276;2022-10-30T09:28:23;18.40;99.00
39017;DHT22;24784;45.582;5.276;2022-10-30T09:30:49;18.70;98.20
39017;DHT22;24784;45.582;5.276;2022-10-30T09:33:17;18.90;97.90
39017;DHT22;24784;45.582;5.276;2022-10-30T09:35:43;19.10;97.20
39017;DHT22;24784;45.582;5.276;2022-10-30T09:38:08;19.20;97.90
39017;DHT22;24784;45.582;5.276;2022-10-30T09:44:06;19.30;99.90
39017;DHT22;24784;45.582;5.276;2022-10-30T09:50:15;19.70;99.30
39017;DHT22;24784;45.582;5.276;2022-10-30T09:53:02;19.80;99.50
39017;DHT22;24784;45.582;5.276;2022-10-30T09:56:26;19.90;95.90
39017;DHT22;24784;45.582;5.276;2022-10-30T10:01:40;20.00;95.70
39017;DHT22;24784;45.582;5.276;2022-10-30T10:04:32;20.00;95.50
39017;DHT22;24784;45.582;5.276;2022-10-30T10:07:01;20.10;95.60
39017;DHT22;24784;45.582;5.276;2022-10-30T10:09:30;20.10;95.40
39017;DHT22;24784;45.582;5.276;2022-10-30T10:12:07;20.10;95.50
39017;DHT22;24784;45.582;5.276;2022-10-30T10:14:42;20.20;95.20
39017;DHT22;24784;45.582;5.276;2022-10-30T10:17:12;20.10;95.80
39017;DHT22;24784;45.582;5.276;2022-10-30T10:19:58;20.20;94.70
39017;DHT22;24784;45.582;5.276;2022-10-30T10:22:36;20.30;97.00
39017;DHT22;24784;45.582;5.276;2022-10-30T10:25:07;20.30;95.20
39017;DHT22;24784;45.582;5.276;2022-10-30T10:30:26;20.50;94.10
39017;DHT22;24784;45.582;5.276;2022-10-30T10:43:57;20.50;93.00
39017;DHT22;24784;45.582;5.276;2022-10-30T10:46:34;20.50;93.90
39017;DHT22;24784;45.582;5.276;2022-10-30T10:52:22;20.60;93.70
39017;DHT22;24784;45.582;5.276;2022-10-30T10:54:59;20.40;92.90
39017;DHT22;24784;45.582;5.276;2022-10-30T10:57:32;20.50;93.20
39017;DHT22;24784;45.582;5.276;2022-10-30T11:00:04;20.70;92.50
39017;DHT22;24784;45.582;5.276;2022-10-30T11:02:37;20.70;92.70
39017;DHT22;24784;45.582;5.276;2022-10-30T11:07:48;20.80;92.60
39017;DHT22;24784;45.582;5.276;2022-10-30T11:10:17;20.80;93.60
39017;DHT22;24784;45.582;5.276;2022-10-30T11:12:43;20.90;92.80
39017;DHT22;24784;45.582;5.276;2022-10-30T11:18:08;20.80;92.80
39017;DHT22;24784;45.582;5.276;2022-10-30T11:23:05;20.90;93.10
39017;DHT22;24784;45.582;5.276;2022-10-30T11:25:48;21.10;92.60
39017;DHT22;24784;45.582;5.276;2022-10-30T11:31:21;21.10;92.50
39017;DHT22;24784;45.582;5.276;2022-10-30T11:33:47;21.20;92.00
39017;DHT22;24784;45.582;5.276;2022-10-30T11:36:16;21.20;92.40
39017;DHT22;24784;45.582;5.276;2022-10-30T11:38:42;21.10;92.80
39017;DHT22;24784;45.582;5.276;2022-10-30T11:41:08;21.10;93.60
39017;DHT22;24784;45.582;5.276;2022-10-30T11:43:36;21.10;93.50
39017;DHT22;24784;45.582;5.276;2022-10-30T11:46:03;21.20;92.80
39017;DHT22;24784;45.582;5.276;2022-10-30T11:48:35;21.30;92.20
39017;DHT22;24784;45.582;5.276;2022-10-30T11:51:03;21.40;93.10
39017;DHT22;24784;45.582;5.276;2022-10-30T11:53:55;21.40;92.40
39017;DHT22;24784;45.582;5.276;2022-10-30T11:56:22;21.40;92.60
39017;DHT22;24784;45.582;5.276;2022-10-30T11:58:53;21.40;92.60
39017;DHT22;24784;45.582;5.276;2022-10-30T12:01:25;21.40;93.10
39017;DHT22;24784;45.582;5.276;2022-10-30T12:03:53;21.50;92.50
39017;DHT22;24784;45.582;5.276;2022-10-30T12:11:30;21.70;92.30
39017;DHT22;24784;45.582;5.276;2022-10-30T12:13:56;21.70;91.90
39017;DHT22;24784;45.582;5.276;2022-10-30T12:16:23;21.80;91.70
39017;DHT22;24784;45.582;5.276;2022-10-30T12:19:04;21.80;92.40
39017;DHT22;24784;45.582;5.276;2022-10-30T12:21:36;21.80;91.90
39017;DHT22;24784;45.582;5.276;2022-10-30T12:24:05;21.90;92.70
39017;DHT22;24784;45.582;5.276;2022-10-30T12:26:37;21.90;91.80
39017;DHT22;24784;45.582;5.276;2022-10-30T12:29:12;21.90;92.60
39017;DHT22;24784;45.582;5.276;2022-10-30T12:31:55;21.90;92.90
39017;DHT22;24784;45.582;5.276;2022-10-30T12:37:18;21.90;92.30
39017;DHT22;24784;45.582;5.276;2022-10-30T12:42:37;22.10;92.60
39017;DHT22;24784;45.582;5.276;2022-10-30T12:47:49;22.20;92.50
39017;DHT22;24784;45.582;5.276;2022-10-30T12:50:26;22.20;92.80
39017;DHT22;24784;45.582;5.276;2022-10-30T12:53:06;22.20;92.70
39017;DHT22;24784;45.582;5.276;2022-10-30T12:55:46;22.30;91.50
39017;DHT22;24784;45.582;5.276;2022-10-30T13:03:49;22.20;91.70
39017;DHT22;24784;45.582;5.276;2022-10-30T13:06:27;22.30;91.80
39017;DHT22;24784;45.582;5.276;2022-10-30T13:14:18;22.20;91.50
39017;DHT22;24784;45.582;5.276;2022-10-30T13:16:45;22.10;92.30
39017;DHT22;24784;45.582;5.276;2022-10-30T13:19:11;22.00;91.90
39017;DHT22;24784;45.582;5.276;2022-10-30T13:24:24;22.10;91.10
39017;DHT22;24784;45.582;5.276;2022-10-30T13:29:45;22.00;92.10
39017;DHT22;24784;45.582;5.276;2022-10-30T13:40:55;22.00;92.00
39017;DHT22;24784;45.582;5.276;2022-10-30T13:47:06;21.90;91.40
39017;DHT22;24784;45.582;5.276;2022-10-30T13:52:12;21.90;91.90
39017;DHT22;24784;45.582;5.276;2022-10-30T13:54:56;21.80;91.90
39017;DHT22;24784;45.582;5.276;2022-10-30T14:00:13;21.90;92.00
39017;DHT22;24784;45.582;5.276;2022-10-30T14:08:40;21.80;92.20
39017;DHT22;24784;45.582;5.276;2022-10-30T14:11:11;21.70;91.80
39017;DHT22;24784;45.582;5.276;2022-10-30T14:13:57;21.70;92.20
39017;DHT22;24784;45.582;5.276;2022-10-30T14:19:07;21.50;93.00
39017;DHT22;24784;45.582;5.276;2022-10-30T14:21:51;21.60;92.60
39017;DHT22;24784;45.582;5.276;2022-10-30T14:24:28;21.50;93.10
39017;DHT22;24784;45.582;5.276;2022-10-30T14:31:58;21.50;92.90
39017;DHT22;24784;45.582;5.276;2022-10-30T14:37:10;21.50;93.70
39017;DHT22;24784;45.582;5.276;2022-10-30T14:39:46;21.50;92.70
39017;DHT22;24784;45.582;5.276;2022-10-30T14:42:17;21.50;92.70
39017;DHT22;24784;45.582;5.276;2022-10-30T14:47:49;21.50;92.70
39017;DHT22;24784;45.582;5.276;2022-10-30T14:56:05;21.30;93.60
39017;DHT22;24784;45.582;5.276;2022-10-30T14:58:34;21.20;93.30
39017;DHT22;24784;45.582;5.276;2022-10-30T15:03:35;21.10;92.70
39017;DHT22;24784;45.582;5.276;2022-10-30T15:06:05;21.10;93.10
39017;DHT22;24784;45.582;5.276;2022-10-30T15:08:41;21.00;93.50
39017;DHT22;24784;45.582;5.276;2022-10-30T15:14:04;21.00;93.50
39017;DHT22;24784;45.582;5.276;2022-10-30T15:16:34;21.00;93.50
39017;DHT22;24784;45.582;5.276;2022-10-30T15:19:10;20.90;94.40
39017;DHT22;24784;45.582;5.276;2022-10-30T15:21:46;20.80;93.50
39017;DHT22;24784;45.582;5.276;2022-10-30T15:24:16;20.90;93.00
39017;DHT22;24784;45.582;5.276;2022-10-30T15:26:46;20.90;93.70
39017;DHT22;24784;45.582;5.276;2022-10-30T15:29:19;20.80;94.30
39017;DHT22;24784;45.582;5.276;2022-10-30T15:31:59;20.60;95.30
39017;DHT22;24784;45.582;5.276;2022-10-30T15:34:27;20.70;93.50
39017;DHT22;24784;45.582;5.276;2022-10-30T15:36:53;20.80;93.60
39017;DHT22;24784;45.582;5.276;2022-10-30T15:39:20;20.50;94.90
39017;DHT22;24784;45.582;5.276;2022-10-30T15:41:49;20.50;93.70
39017;DHT22;24784;45.582;5.276;2022-10-30T15:44:37;20.50;93.70
39017;DHT22;24784;45.582;5.276;2022-10-30T15:47:04;20.40;95.20
39017;DHT22;24784;45.582;5.276;2022-10-30T15:49:35;20.10;95.90
39017;DHT22;24784;45.582;5.276;2022-10-30T15:52:35;20.00;95.10
39017;DHT22;24784;45.582;5.276;2022-10-30T15:55:08;20.00;95.00
39017;DHT22;24784;45.582;5.276;2022-10-30T15:57:43;20.10;94.70
39017;DHT22;24784;45.582;5.276;2022-10-30T16:00:23;20.00;94.70
39017;DHT22;24784;45.582;5.276;2022-10-30T16:03:06;19.70;96.70
39017;DHT22;24784;45.582;5.276;2022-10-30T16:05:39;19.80;95.50
39017;DHT22;24784;45.582;5.276;2022-10-30T16:08:14;19.50;97.00
39017;DHT22;24784;45.582;5.276;2022-10-30T16:10:42;19.40;97.50
39017;DHT22;24784;45.582;5.276;2022-10-30T16:13:38;19.20;98.50
39017;DHT22;24784;45.582;5.276;2022-10-30T16:16:03;19.10;98.50
39017;DHT22;24784;45.582;5.276;2022-10-30T16:18:31;18.90;98.80
39017;DHT22;24784;45.582;5.276;2022-10-30T16:21:02;18.70;99.10
39017;DHT22;24784;45.582;5.276;2022-10-30T16:23:45;18.60;99.70
39017;DHT22;24784;45.582;5.276;2022-10-30T16:26:32;18.50;99.20
39017;DHT22;24784;45.582;5.276;2022-10-30T16:29:23;18.40;99.40
39017;DHT22;24784;45.582;5.276;2022-10-30T16:31:47;18.30;99.90
39017;DHT22;24784;45.582;5.276;2022-10-30T16:34:28;18.20;98.60
39017;DHT22;24784;45.582;5.276;2022-10-30T16:37:01;18.60;97.30
39017;DHT22;24784;45.582;5.276;2022-10-30T16:39:28;18.80;97.60
39017;DHT22;24784;45.582;5.276;2022-10-30T16:41:58;18.40;99.00
39017;DHT22;24784;45.582;5.276;2022-10-30T16:44:29;18.20;99.80
39017;DHT22;24784;45.582;5.276;2022-10-30T16:46:56;18.10;99.60
39017;DHT22;24784;45.582;5.276;2022-10-30T16:49:26;18.30;97.90
39017;DHT22;24784;45.582;5.276;2022-10-30T16:51:57;18.30;98.60
39017;DHT22;24784;45.582;5.276;2022-10-30T16:54:32;18.30;98.70
39017;DHT22;24784;45.582;5.276;2022-10-30T16:57:01;18.10;99.50
39017;DHT22;24784;45.582;5.276;2022-10-30T16:59:31;17.80;99.90
39017;DHT22;24784;45.582;5.276;2022-10-30T17:02:00;18.00;98.90
39017;DHT22;24784;45.582;5.276;2022-10-30T17:04:31;17.90;99.50
39017;DHT22;24784;45.582;5.276;2022-10-30T17:07:11;17.70;99.60
39017;DHT22;24784;45.582;5.276;2022-10-30T17:09:39;17.60;99.90
39017;DHT22;24784;45.582;5.276;2022-10-30T17:12:14;17.60;99.60
39017;DHT22;24784;45.582;5.276;2022-10-30T17:15:11;17.60;99.90
39017;DHT22;24784;45.582;5.276;2022-10-30T17:17:39;17.50;99.90
39017;DHT22;24784;45.582;5.276;2022-10-30T17:22:43;17.30;99.90
39017;DHT22;24784;45.582;5.276;2022-10-30T17:25:30;17.30;99.90
39017;DHT22;24784;45.582;5.276;2022-10-30T17:27:59;17.10;99.90
39017;DHT22;24784;45.582;5.276;2022-10-30T17:30:35;17.00;99.90
39017;DHT22;24784;45.582;5.276;2022-10-30T17:33:47;17.00;99.90
39017;DHT22;24784;45.582;5.276;2022-10-30T17:35:49;17.00;99.90
39017;DHT22;24784;45.582;5.276;2022-10-30T17:38:14;16.80;99.90
39017;DHT22;24784;45.582;5.276;2022-10-30T17:40:40;16.60;99.90
39017;DHT22;24784;45.582;5.276;2022-10-30T17:43:11;16.70;99.90
39017;DHT22;24784;45.582;5.276;2022-10-30T17:45:43;16.80;99.90
39017;DHT22;24784;45.582;5.276;2022-10-30T17:48:13;16.60;99.90
39017;DHT22;24784;45.582;5.276;2022-10-30T17:50:39;16.60;99.90
39017;DHT22;24784;45.582;5.276;2022-10-30T17:53:05;16.60;99.90
39017;DHT22;24784;45.582;5.276;2022-10-30T17:55:33;16.50;99.90
39017;DHT22;24784;45.582;5.276;2022-10-30T17:57:59;16.40;99.90
39017;DHT22;24784;45.582;5.276;2022-10-30T18:00:25;16.40;99.90
39017;DHT22;24784;45.582;5.276;2022-10-30T18:02:51;16.30;99.90
39017;DHT22;24784;45.582;5.276;2022-10-30T18:05:19;16.00;99.90
39017;DHT22;24784;45.582;5.276;2022-10-30T18:07:46;16.10;99.90
39017;DHT22;24784;45.582;5.276;2022-10-30T18:10:12;16.10;99.90
39017;DHT22;24784;45.582;5.276;2022-10-30T18:12:38;16.10;99.90